< < Back
Terminal Aerodrome Forecast


Current Version              Previous Versions:   1  2  3  4  5  6  7  8  9  

Terminal Aerodrome Forecast

595
FTUS42 KCAE 241737
TAFAGS
TAF
KAGS 241737Z 2418/2518 VRB05KT P6SM SCT045
     FM250600 00000KT 4SM BR SKC
     FM250800 00000KT 1SM BR SCT003
     FM251300 06005KT P6SM SCT040=

Latest METAR

294
SAUS70 KWBC 242100 RRI
MTRAGS
METAR KAGS 242053Z 00000KT 10SM SCT040 32/18 A2999 RMK AO2 SLP154
T03220183 56020


USA.gov is the U.S. government's official web portal to all federal, state and local government web resources and services.